sensor_id;sensor_type;location;lat;lon;timestamp;pressure;altitude;pressure_sealevel;temperature;humidity
28701;BME280;15877;52.344;16.790;2023-02-04T00:01:30;100337.88;;;4.01;77.95
28701;BME280;15877;52.344;16.790;2023-02-04T00:04:02;100359.91;;;3.94;78.03
28701;BME280;15877;52.344;16.790;2023-02-04T00:06:35;100374.18;;;4.00;77.95
28701;BME280;15877;52.344;16.790;2023-02-04T00:09:08;100381.43;;;3.81;77.93
28701;BME280;15877;52.344;16.790;2023-02-04T00:11:41;100391.13;;;3.67;78.45
28701;BME280;15877;52.344;16.790;2023-02-04T00:14:14;100429.52;;;3.84;77.63
28701;BME280;15877;52.344;16.790;2023-02-04T00:16:47;100442.99;;;3.79;77.71
28701;BME280;15877;52.344;16.790;2023-02-04T00:19:19;100455.73;;;3.69;77.27
28701;BME280;15877;52.344;16.790;2023-02-04T00:21:55;100479.20;;;3.65;77.26
28701;BME280;15877;52.344;16.790;2023-02-04T00:24:28;100490.06;;;3.72;77.09
28701;BME280;15877;52.344;16.790;2023-02-04T00:27:01;100499.20;;;3.71;76.85
28701;BME280;15877;52.344;16.790;2023-02-04T00:29:34;100513.11;;;3.68;76.37
28701;BME280;15877;52.344;16.790;2023-02-04T00:32:06;100522.04;;;3.71;76.29
28701;BME280;15877;52.344;16.790;2023-02-04T00:34:39;100539.33;;;3.39;77.51
28701;BME280;15877;52.344;16.790;2023-02-04T00:37:12;100553.75;;;3.47;77.42
28701;BME280;15877;52.344;16.790;2023-02-04T00:39:45;100563.64;;;3.48;76.70
28701;BME280;15877;52.344;16.790;2023-02-04T00:42:17;100585.17;;;3.58;76.82
28701;BME280;15877;52.344;16.790;2023-02-04T00:44:52;100583.95;;;3.51;76.17
28701;BME280;15877;52.344;16.790;2023-02-04T00:47:26;100617.77;;;3.63;75.86
28701;BME280;15877;52.344;16.790;2023-02-04T00:49:59;100622.62;;;3.40;76.41
28701;BME280;15877;52.344;16.790;2023-02-04T00:52:32;100646.45;;;3.60;76.06
28701;BME280;15877;52.344;16.790;2023-02-04T00:55:08;100675.63;;;3.76;75.09
28701;BME280;15877;52.344;16.790;2023-02-04T00:57:42;100697.66;;;3.74;74.64
28701;BME280;15877;52.344;16.790;2023-02-04T01:00:15;100712.08;;;3.62;74.60
28701;BME280;15877;52.344;16.790;2023-02-04T01:02:48;100733.91;;;3.56;75.22
28701;BME280;15877;52.344;16.790;2023-02-04T01:05:22;100745.80;;;3.63;74.76
28701;BME280;15877;52.344;16.790;2023-02-04T01:07:56;100756.45;;;3.32;75.56
28701;BME280;15877;52.344;16.790;2023-02-04T01:10:29;100756.19;;;3.41;75.48
28701;BME280;15877;52.344;16.790;2023-02-04T01:13:02;100771.93;;;3.66;74.29
28701;BME280;15877;52.344;16.790;2023-02-04T01:15:35;100786.56;;;3.53;74.41
28701;BME280;15877;52.344;16.790;2023-02-04T01:18:08;100802.96;;;3.54;74.19
28701;BME280;15877;52.344;16.790;2023-02-04T01:20:40;100822.36;;;3.51;72.61
28701;BME280;15877;52.344;16.790;2023-02-04T01:23:13;100828.92;;;3.32;71.38
28701;BME280;15877;52.344;16.790;2023-02-04T01:25:46;100848.13;;;3.36;71.59
28701;BME280;15877;52.344;16.790;2023-02-04T01:28:18;100860.73;;;3.21;71.59
28701;BME280;15877;52.344;16.790;2023-02-04T01:30:50;100876.41;;;3.27;70.87
28701;BME280;15877;52.344;16.790;2023-02-04T01:33:27;100895.80;;;3.39;70.50
28701;BME280;15877;52.344;16.790;2023-02-04T01:36:00;100911.13;;;3.36;70.48
28701;BME280;15877;52.344;16.790;2023-02-04T01:38:33;100924.63;;;3.39;70.11
28701;BME280;15877;52.344;16.790;2023-02-04T01:41:06;100935.25;;;3.41;70.20
28701;BME280;15877;52.344;16.790;2023-02-04T01:43:39;100944.05;;;3.46;69.57
28701;BME280;15877;52.344;16.790;2023-02-04T01:46:11;100958.13;;;3.51;69.56
28701;BME280;15877;52.344;16.790;2023-02-04T01:48:44;100958.98;;;3.33;69.68
28701;BME280;15877;52.344;16.790;2023-02-04T01:51:22;100981.16;;;3.45;69.37
28701;BME280;15877;52.344;16.790;2023-02-04T01:53:59;100991.92;;;3.57;68.31
28701;BME280;15877;52.344;16.790;2023-02-04T01:56:32;101001.70;;;3.56;68.03
28701;BME280;15877;52.344;16.790;2023-02-04T01:59:12;101014.47;;;3.41;68.11
28701;BME280;15877;52.344;16.790;2023-02-04T02:01:46;101031.17;;;3.64;67.27
28701;BME280;15877;52.344;16.790;2023-02-04T02:04:21;101047.37;;;3.65;67.18
28701;BME280;15877;52.344;16.790;2023-02-04T02:06:58;101056.77;;;3.50;67.81
28701;BME280;15877;52.344;16.790;2023-02-04T02:09:34;101067.11;;;3.58;67.55
28701;BME280;15877;52.344;16.790;2023-02-04T02:12:09;101075.73;;;3.59;67.55
28701;BME280;15877;52.344;16.790;2023-02-04T02:14:41;101083.70;;;3.56;67.49
28701;BME280;15877;52.344;16.790;2023-02-04T02:17:14;101095.10;;;3.44;67.87
28701;BME280;15877;52.344;16.790;2023-02-04T02:19:47;101110.40;;;3.55;67.69
28701;BME280;15877;52.344;16.790;2023-02-04T02:22:24;101120.64;;;3.58;67.74
28701;BME280;15877;52.344;16.790;2023-02-04T02:24:58;101132.66;;;3.49;68.17
28701;BME280;15877;52.344;16.790;2023-02-04T02:27:31;101147.71;;;3.55;68.11
28701;BME280;15877;52.344;16.790;2023-02-04T02:30:04;101159.63;;;3.46;68.25
28701;BME280;15877;52.344;16.790;2023-02-04T02:32:39;101171.95;;;3.45;68.72
28701;BME280;15877;52.344;16.790;2023-02-04T02:35:12;101184.76;;;3.44;68.74
28701;BME280;15877;52.344;16.790;2023-02-04T02:37:45;101195.30;;;3.58;68.61
28701;BME280;15877;52.344;16.790;2023-02-04T02:40:19;101212.55;;;3.55;68.55
28701;BME280;15877;52.344;16.790;2023-02-04T02:42:52;101223.59;;;3.56;68.76
28701;BME280;15877;52.344;16.790;2023-02-04T02:45:27;101210.20;;;3.43;68.79
28701;BME280;15877;52.344;16.790;2023-02-04T02:48:02;101237.05;;;3.55;68.94
28701;BME280;15877;52.344;16.790;2023-02-04T02:50:36;101247.59;;;3.48;69.10
28701;BME280;15877;52.344;16.790;2023-02-04T02:53:12;101263.65;;;3.55;68.90
28701;BME280;15877;52.344;16.790;2023-02-04T02:55:47;101271.87;;;3.50;68.91
28701;BME280;15877;52.344;16.790;2023-02-04T02:58:25;101284.14;;;3.37;69.17
28701;BME280;15877;52.344;16.790;2023-02-04T03:01:03;101297.94;;;3.44;68.97
28701;BME280;15877;52.344;16.790;2023-02-04T03:03:40;101297.35;;;3.35;68.91
28701;BME280;15877;52.344;16.790;2023-02-04T03:06:17;101322.02;;;3.43;68.89
28701;BME280;15877;52.344;16.790;2023-02-04T03:08:52;101332.48;;;3.50;68.98
28701;BME280;15877;52.344;16.790;2023-02-04T03:11:27;101335.46;;;3.51;68.47
28701;BME280;15877;52.344;16.790;2023-02-04T03:14:01;101357.66;;;3.31;69.13
28701;BME280;15877;52.344;16.790;2023-02-04T03:16:35;101362.41;;;3.37;69.28
28701;BME280;15877;52.344;16.790;2023-02-04T03:19:11;101372.73;;;3.40;68.99
28701;BME280;15877;52.344;16.790;2023-02-04T03:21:44;101388.55;;;3.42;68.63
28701;BME280;15877;52.344;16.790;2023-02-04T03:24:17;101402.63;;;3.36;68.66
28701;BME280;15877;52.344;16.790;2023-02-04T03:26:50;101412.34;;;3.41;68.44
28701;BME280;15877;52.344;16.790;2023-02-04T03:29:22;101420.70;;;3.41;68.47
28701;BME280;15877;52.344;16.790;2023-02-04T03:31:55;101431.13;;;3.51;68.36
28701;BME280;15877;52.344;16.790;2023-02-04T03:34:30;101443.11;;;3.46;68.46
28701;BME280;15877;52.344;16.790;2023-02-04T03:37:02;101446.41;;;3.41;68.55
28701;BME280;15877;52.344;16.790;2023-02-04T03:39:35;101448.84;;;3.34;68.62
28701;BME280;15877;52.344;16.790;2023-02-04T03:42:08;101451.52;;;3.31;68.75
28701;BME280;15877;52.344;16.790;2023-02-04T03:44:41;101477.32;;;3.33;69.00
28701;BME280;15877;52.344;16.790;2023-02-04T03:47:13;101476.53;;;3.40;68.80
28701;BME280;15877;52.344;16.790;2023-02-04T03:49:46;101483.69;;;3.32;68.85
28701;BME280;15877;52.344;16.790;2023-02-04T03:52:18;101492.77;;;3.36;69.09
28701;BME280;15877;52.344;16.790;2023-02-04T03:54:51;101503.51;;;3.34;69.01
28701;BME280;15877;52.344;16.790;2023-02-04T03:57:23;101509.02;;;3.39;68.76
28701;BME280;15877;52.344;16.790;2023-02-04T03:59:56;101515.55;;;3.44;68.51
28701;BME280;15877;52.344;16.790;2023-02-04T04:02:28;101531.71;;;3.43;68.63
28701;BME280;15877;52.344;16.790;2023-02-04T04:05:01;101547.02;;;3.46;68.71
28701;BME280;15877;52.344;16.790;2023-02-04T04:07:34;101548.65;;;3.41;68.84
28701;BME280;15877;52.344;16.790;2023-02-04T04:10:07;101553.67;;;3.45;68.79
28701;BME280;15877;52.344;16.790;2023-02-04T04:12:40;101560.94;;;3.50;68.51
28701;BME280;15877;52.344;16.790;2023-02-04T04:15:12;101565.52;;;3.48;68.56
28701;BME280;15877;52.344;16.790;2023-02-04T04:17:45;101572.98;;;3.42;68.79
28701;BME280;15877;52.344;16.790;2023-02-04T04:20:18;101580.54;;;3.45;68.81
28701;BME280;15877;52.344;16.790;2023-02-04T04:22:51;101572.92;;;3.42;68.72
28701;BME280;15877;52.344;16.790;2023-02-04T04:25:23;101571.08;;;3.40;68.99
28701;BME280;15877;52.344;16.790;2023-02-04T04:27:56;101577.96;;;3.45;68.92
28701;BME280;15877;52.344;16.790;2023-02-04T04:30:30;101588.63;;;3.48;68.86
28701;BME280;15877;52.344;16.790;2023-02-04T04:33:02;101592.38;;;3.47;68.80
28701;BME280;15877;52.344;16.790;2023-02-04T04:35:35;101601.95;;;3.46;68.79
28701;BME280;15877;52.344;16.790;2023-02-04T04:38:08;101611.61;;;3.54;68.72
28701;BME280;15877;52.344;16.790;2023-02-04T04:40:40;101610.25;;;3.53;68.68
28701;BME280;15877;52.344;16.790;2023-02-04T04:43:13;101603.52;;;3.32;68.95
28701;BME280;15877;52.344;16.790;2023-02-04T04:45:45;101628.88;;;3.46;69.20
28701;BME280;15877;52.344;16.790;2023-02-04T04:48:18;101639.27;;;3.52;68.87
28701;BME280;15877;52.344;16.790;2023-02-04T04:50:51;101644.46;;;3.50;69.00
28701;BME280;15877;52.344;16.790;2023-02-04T04:53:24;101655.48;;;3.58;68.68
28701;BME280;15877;52.344;16.790;2023-02-04T04:55:57;101658.21;;;3.55;68.84
28701;BME280;15877;52.344;16.790;2023-02-04T04:58:30;101659.80;;;3.49;69.17
28701;BME280;15877;52.344;16.790;2023-02-04T05:01:03;101661.63;;;3.46;69.46
28701;BME280;15877;52.344;16.790;2023-02-04T05:03:35;101668.34;;;3.44;69.48
28701;BME280;15877;52.344;16.790;2023-02-04T05:06:08;101672.91;;;3.37;69.95
28701;BME280;15877;52.344;16.790;2023-02-04T05:08:41;101683.42;;;3.41;69.97
28701;BME280;15877;52.344;16.790;2023-02-04T05:11:14;101690.65;;;3.45;70.03
28701;BME280;15877;52.344;16.790;2023-02-04T05:13:47;101691.00;;;3.49;69.95
28701;BME280;15877;52.344;16.790;2023-02-04T05:16:19;101706.64;;;3.59;69.73
28701;BME280;15877;52.344;16.790;2023-02-04T05:18:52;101715.77;;;3.58;69.85
28701;BME280;15877;52.344;16.790;2023-02-04T05:21:24;101728.26;;;3.58;69.99
28701;BME280;15877;52.344;16.790;2023-02-04T05:23:57;101735.05;;;3.59;70.00
28701;BME280;15877;52.344;16.790;2023-02-04T05:26:29;101743.46;;;3.51;70.25
28701;BME280;15877;52.344;16.790;2023-02-04T05:29:02;101727.73;;;3.36;70.46
28701;BME280;15877;52.344;16.790;2023-02-04T05:31:34;101750.70;;;3.45;70.73
28701;BME280;15877;52.344;16.790;2023-02-04T05:34:07;101767.14;;;3.51;70.48
28701;BME280;15877;52.344;16.790;2023-02-04T05:36:39;101776.48;;;3.43;70.72
28701;BME280;15877;52.344;16.790;2023-02-04T05:39:12;101775.60;;;3.44;70.93
28701;BME280;15877;52.344;16.790;2023-02-04T05:41:44;101783.95;;;3.46;70.74
28701;BME280;15877;52.344;16.790;2023-02-04T05:44:17;101789.44;;;3.55;70.45
28701;BME280;15877;52.344;16.790;2023-02-04T05:46:50;101797.22;;;3.57;70.45
28701;BME280;15877;52.344;16.790;2023-02-04T05:49:23;101805.56;;;3.58;70.41
28701;BME280;15877;52.344;16.790;2023-02-04T05:51:55;101815.89;;;3.60;70.21
28701;BME280;15877;52.344;16.790;2023-02-04T05:54:28;101802.14;;;3.46;70.49
28701;BME280;15877;52.344;16.790;2023-02-04T05:57:00;101828.11;;;3.58;70.23
28701;BME280;15877;52.344;16.790;2023-02-04T05:59:32;101834.48;;;3.58;70.26
28701;BME280;15877;52.344;16.790;2023-02-04T06:02:05;101822.34;;;3.46;70.16
28701;BME280;15877;52.344;16.790;2023-02-04T06:04:37;101844.73;;;3.60;70.34
28701;BME280;15877;52.344;16.790;2023-02-04T06:07:10;101844.78;;;3.62;70.24
28701;BME280;15877;52.344;16.790;2023-02-04T06:09:42;101858.24;;;3.65;70.37
28701;BME280;15877;52.344;16.790;2023-02-04T06:12:16;101866.30;;;3.68;70.39
28701;BME280;15877;52.344;16.790;2023-02-04T06:14:49;101873.75;;;3.62;70.28
28701;BME280;15877;52.344;16.790;2023-02-04T06:17:21;101887.13;;;3.69;69.90
28701;BME280;15877;52.344;16.790;2023-02-04T06:19:54;101893.48;;;3.71;69.58
28701;BME280;15877;52.344;16.790;2023-02-04T06:22:27;101903.84;;;3.71;69.18
28701;BME280;15877;52.344;16.790;2023-02-04T06:24:59;101911.48;;;3.68;69.07
28701;BME280;15877;52.344;16.790;2023-02-04T06:27:32;101919.94;;;3.59;69.03
28701;BME280;15877;52.344;16.790;2023-02-04T06:30:09;101922.84;;;3.60;68.77
28701;BME280;15877;52.344;16.790;2023-02-04T06:32:42;101927.60;;;3.66;68.47
28701;BME280;15877;52.344;16.790;2023-02-04T06:35:15;101938.10;;;3.76;67.96
28701;BME280;15877;52.344;16.790;2023-02-04T06:37:48;101940.09;;;3.76;67.84
28701;BME280;15877;52.344;16.790;2023-02-04T06:40:21;101948.44;;;3.76;67.55
28701;BME280;15877;52.344;16.790;2023-02-04T06:42:56;101954.02;;;3.72;67.70
28701;BME280;15877;52.344;16.790;2023-02-04T06:45:28;101958.79;;;3.62;67.59
28701;BME280;15877;52.344;16.790;2023-02-04T06:48:01;101966.66;;;3.69;67.39
28701;BME280;15877;52.344;16.790;2023-02-04T06:50:34;101968.15;;;3.70;67.40
28701;BME280;15877;52.344;16.790;2023-02-04T06:53:06;101969.39;;;3.76;67.07
28701;BME280;15877;52.344;16.790;2023-02-04T06:55:40;101981.08;;;3.65;67.22
28701;BME280;15877;52.344;16.790;2023-02-04T06:58:13;101983.18;;;3.63;67.49
28701;BME280;15877;52.344;16.790;2023-02-04T07:00:45;101988.81;;;3.53;67.88
28701;BME280;15877;52.344;16.790;2023-02-04T07:03:17;101996.20;;;3.48;68.28
28701;BME280;15877;52.344;16.790;2023-02-04T07:05:50;101973.96;;;3.46;68.32
28701;BME280;15877;52.344;16.790;2023-02-04T07:08:24;102001.29;;;3.57;68.02
28701;BME280;15877;52.344;16.790;2023-02-04T07:10:56;102007.73;;;3.57;68.18
28701;BME280;15877;52.344;16.790;2023-02-04T07:13:29;102011.71;;;3.63;68.23
28701;BME280;15877;52.344;16.790;2023-02-04T07:16:02;102021.86;;;3.70;68.13
28701;BME280;15877;52.344;16.790;2023-02-04T07:18:36;102015.96;;;3.72;67.95
28701;BME280;15877;52.344;16.790;2023-02-04T07:21:08;102025.48;;;3.53;68.54
28701;BME280;15877;52.344;16.790;2023-02-04T07:23:41;102028.31;;;3.63;68.97
28701;BME280;15877;52.344;16.790;2023-02-04T07:26:13;102034.17;;;3.69;69.19
28701;BME280;15877;52.344;16.790;2023-02-04T07:28:48;102022.53;;;3.65;69.18
28701;BME280;15877;52.344;16.790;2023-02-04T07:31:20;102043.30;;;3.71;69.29
28701;BME280;15877;52.344;16.790;2023-02-04T07:33:53;102046.86;;;3.72;69.44
28701;BME280;15877;52.344;16.790;2023-02-04T07:36:25;102049.95;;;3.75;69.41
28701;BME280;15877;52.344;16.790;2023-02-04T07:38:58;102056.42;;;3.53;69.51
28701;BME280;15877;52.344;16.790;2023-02-04T07:41:30;102057.81;;;3.73;69.38
28701;BME280;15877;52.344;16.790;2023-02-04T07:44:03;102069.78;;;3.92;68.86
28701;BME280;15877;52.344;16.790;2023-02-04T07:46:36;102058.63;;;3.87;68.51
28701;BME280;15877;52.344;16.790;2023-02-04T07:49:08;102083.30;;;3.96;68.44
28701;BME280;15877;52.344;16.790;2023-02-04T07:51:41;102090.09;;;3.88;68.68
28701;BME280;15877;52.344;16.790;2023-02-04T07:54:14;102096.95;;;3.90;68.70
28701;BME280;15877;52.344;16.790;2023-02-04T07:56:46;102086.14;;;3.85;68.72
28701;BME280;15877;52.344;16.790;2023-02-04T07:59:19;102108.36;;;3.99;68.54
28701;BME280;15877;52.344;16.790;2023-02-04T08:01:51;102107.52;;;4.05;68.75
28701;BME280;15877;52.344;16.790;2023-02-04T08:04:24;102097.23;;;4.05;68.69
28701;BME280;15877;52.344;16.790;2023-02-04T08:06:56;102093.98;;;3.89;68.71
28701;BME280;15877;52.344;16.790;2023-02-04T08:09:29;102099.73;;;3.98;68.29
28701;BME280;15877;52.344;16.790;2023-02-04T08:12:01;102103.17;;;4.09;67.98
28701;BME280;15877;52.344;16.790;2023-02-04T08:14:34;102108.24;;;4.05;67.83
28701;BME280;15877;52.344;16.790;2023-02-04T08:17:07;102104.70;;;4.08;68.14
28701;BME280;15877;52.344;16.790;2023-02-04T08:19:40;102109.86;;;4.13;68.17
28701;BME280;15877;52.344;16.790;2023-02-04T08:22:13;102118.55;;;4.17;68.06
28701;BME280;15877;52.344;16.790;2023-02-04T08:24:45;102125.41;;;4.17;67.75
28701;BME280;15877;52.344;16.790;2023-02-04T08:27:17;102135.05;;;4.16;67.81
28701;BME280;15877;52.344;16.790;2023-02-04T08:29:50;102144.32;;;4.24;67.79
28701;BME280;15877;52.344;16.790;2023-02-04T08:32:22;102138.42;;;4.11;67.56
28701;BME280;15877;52.344;16.790;2023-02-04T08:34:57;102148.45;;;4.22;67.52
28701;BME280;15877;52.344;16.790;2023-02-04T08:37:30;102158.83;;;4.33;67.16
28701;BME280;15877;52.344;16.790;2023-02-04T08:40:02;102148.17;;;4.25;66.96
28701;BME280;15877;52.344;16.790;2023-02-04T08:42:34;102146.56;;;4.14;67.00
28701;BME280;15877;52.344;16.790;2023-02-04T08:45:09;102165.27;;;4.25;66.85
28701;BME280;15877;52.344;16.790;2023-02-04T08:47:42;102168.16;;;4.20;66.91
28701;BME280;15877;52.344;16.790;2023-02-04T08:50:15;102172.16;;;4.22;67.39
28701;BME280;15877;52.344;16.790;2023-02-04T08:52:48;102175.58;;;4.25;66.97
28701;BME280;15877;52.344;16.790;2023-02-04T08:55:20;102181.04;;;4.17;66.33
28701;BME280;15877;52.344;16.790;2023-02-04T08:57:53;102187.69;;;4.21;66.24
28701;BME280;15877;52.344;16.790;2023-02-04T09:00:26;102192.05;;;4.14;66.51
28701;BME280;15877;52.344;16.790;2023-02-04T09:02:58;102189.49;;;4.25;66.91
28701;BME280;15877;52.344;16.790;2023-02-04T09:05:31;102193.72;;;4.30;66.60
28701;BME280;15877;52.344;16.790;2023-02-04T09:08:03;102196.22;;;4.39;66.18
28701;BME280;15877;52.344;16.790;2023-02-04T09:10:36;102195.39;;;4.40;66.29
28701;BME280;15877;52.344;16.790;2023-02-04T09:13:08;102201.75;;;4.49;65.93
28701;BME280;15877;52.344;16.790;2023-02-04T09:15:41;102207.54;;;4.47;65.54
28701;BME280;15877;52.344;16.790;2023-02-04T09:18:14;102191.81;;;4.43;65.12
28701;BME280;15877;52.344;16.790;2023-02-04T09:20:49;102209.73;;;4.65;64.67
28701;BME280;15877;52.344;16.790;2023-02-04T09:23:22;102210.31;;;4.70;64.87
28701;BME280;15877;52.344;16.790;2023-02-04T09:25:54;102197.09;;;4.59;63.45
28701;BME280;15877;52.344;16.790;2023-02-04T09:28:27;102212.07;;;4.68;62.84
28701;BME280;15877;52.344;16.790;2023-02-04T09:31:00;102209.74;;;4.71;62.59
28701;BME280;15877;52.344;16.790;2023-02-04T09:33:35;102213.52;;;4.63;62.58
28701;BME280;15877;52.344;16.790;2023-02-04T09:36:08;102215.80;;;4.59;62.26
28701;BME280;15877;52.344;16.790;2023-02-04T09:38:40;102226.67;;;4.65;61.87
28701;BME280;15877;52.344;16.790;2023-02-04T09:41:13;102232.64;;;4.61;62.25
28701;BME280;15877;52.344;16.790;2023-02-04T09:43:46;102230.36;;;4.52;62.61
28701;BME280;15877;52.344;16.790;2023-02-04T09:46:22;102236.50;;;4.61;62.59
28701;BME280;15877;52.344;16.790;2023-02-04T09:48:55;102236.95;;;4.54;62.41
28701;BME280;15877;52.344;16.790;2023-02-04T09:51:32;102230.54;;;4.62;61.93
28701;BME280;15877;52.344;16.790;2023-02-04T09:54:07;102231.90;;;4.65;61.82
28701;BME280;15877;52.344;16.790;2023-02-04T09:56:43;102221.77;;;4.65;61.12
28701;BME280;15877;52.344;16.790;2023-02-04T09:59:17;102224.02;;;4.69;60.14
28701;BME280;15877;52.344;16.790;2023-02-04T10:01:51;102240.61;;;4.78;59.72
28701;BME280;15877;52.344;16.790;2023-02-04T10:04:26;102245.30;;;4.76;59.91
28701;BME280;15877;52.344;16.790;2023-02-04T10:06:59;102247.06;;;4.91;60.04
28701;BME280;15877;52.344;16.790;2023-02-04T10:09:32;102249.93;;;5.00;59.34
28701;BME280;15877;52.344;16.790;2023-02-04T10:12:04;102254.21;;;5.06;59.57
28701;BME280;15877;52.344;16.790;2023-02-04T10:14:37;102258.02;;;5.04;59.06
28701;BME280;15877;52.344;16.790;2023-02-04T10:17:10;102241.65;;;4.94;59.13
28701;BME280;15877;52.344;16.790;2023-02-04T10:19:44;102261.57;;;5.10;59.10
28701;BME280;15877;52.344;16.790;2023-02-04T10:22:23;102264.48;;;5.14;58.77
28701;BME280;15877;52.344;16.790;2023-02-04T10:24:56;102266.06;;;5.15;59.31
28701;BME280;15877;52.344;16.790;2023-02-04T10:27:29;102266.33;;;5.18;59.51
28701;BME280;15877;52.344;16.790;2023-02-04T10:30:02;102270.88;;;5.23;58.52
28701;BME280;15877;52.344;16.790;2023-02-04T10:32:34;102255.29;;;5.20;58.56
28701;BME280;15877;52.344;16.790;2023-02-04T10:35:14;102274.70;;;5.07;58.55
28701;BME280;15877;52.344;16.790;2023-02-04T10:37:47;102272.95;;;5.05;58.50
28701;BME280;15877;52.344;16.790;2023-02-04T10:40:30;102277.88;;;5.07;59.41
28701;BME280;15877;52.344;16.790;2023-02-04T10:43:09;102284.03;;;5.35;58.83
28701;BME280;15877;52.344;16.790;2023-02-04T10:45:45;102285.14;;;5.34;58.88
28701;BME280;15877;52.344;16.790;2023-02-04T10:48:19;102286.29;;;5.35;58.72
28701;BME280;15877;52.344;16.790;2023-02-04T10:50:52;102284.91;;;5.54;58.75
28701;BME280;15877;52.344;16.790;2023-02-04T10:53:25;102282.92;;;5.47;58.23
28701;BME280;15877;52.344;16.790;2023-02-04T10:56:17;102271.11;;;5.36;58.02
28701;BME280;15877;52.344;16.790;2023-02-04T10:58:51;102289.48;;;5.43;56.55
28701;BME280;15877;52.344;16.790;2023-02-04T11:01:27;102297.17;;;5.39;56.80
28701;BME280;15877;52.344;16.790;2023-02-04T11:04:00;102298.61;;;5.33;56.48
28701;BME280;15877;52.344;16.790;2023-02-04T11:06:33;102303.06;;;5.33;56.55
28701;BME280;15877;52.344;16.790;2023-02-04T11:09:05;102303.00;;;5.21;56.12
28701;BME280;15877;52.344;16.790;2023-02-04T11:11:38;102301.65;;;5.17;55.65
28701;BME280;15877;52.344;16.790;2023-02-04T11:14:27;102306.63;;;5.11;56.76
28701;BME280;15877;52.344;16.790;2023-02-04T11:17:02;102304.77;;;5.08;56.54
28701;BME280;15877;52.344;16.790;2023-02-04T11:19:37;102312.90;;;5.01;57.73
28701;BME280;15877;52.344;16.790;2023-02-04T11:22:21;102299.66;;;4.91;58.70
28701;BME280;15877;52.344;16.790;2023-02-04T11:24:56;102318.20;;;5.11;58.55
28701;BME280;15877;52.344;16.790;2023-02-04T11:27:36;102317.16;;;5.42;57.71
28701;BME280;15877;52.344;16.790;2023-02-04T11:30:21;102320.12;;;5.50;57.42
28701;BME280;15877;52.344;16.790;2023-02-04T11:33:02;102304.48;;;5.34;57.91
28701;BME280;15877;52.344;16.790;2023-02-04T11:35:35;102306.62;;;5.37;57.26
28701;BME280;15877;52.344;16.790;2023-02-04T11:38:25;102323.76;;;5.57;56.88
28701;BME280;15877;52.344;16.790;2023-02-04T11:40:58;102312.30;;;5.75;55.75
28701;BME280;15877;52.344;16.790;2023-02-04T11:43:33;102327.98;;;5.99;54.00
28701;BME280;15877;52.344;16.790;2023-02-04T11:46:14;102306.59;;;5.96;53.29
28701;BME280;15877;52.344;16.790;2023-02-04T11:48:52;102333.44;;;6.05;53.70
28701;BME280;15877;52.344;16.790;2023-02-04T11:51:29;102328.04;;;5.98;54.82
28701;BME280;15877;52.344;16.790;2023-02-04T11:54:02;102328.39;;;6.02;55.05
28701;BME280;15877;52.344;16.790;2023-02-04T11:56:35;102316.44;;;5.98;54.80
28701;BME280;15877;52.344;16.790;2023-02-04T11:59:10;102328.98;;;5.98;54.94
28701;BME280;15877;52.344;16.790;2023-02-04T12:01:43;102331.10;;;5.94;54.08
28701;BME280;15877;52.344;16.790;2023-02-04T12:04:23;102328.18;;;5.86;54.03
28701;BME280;15877;52.344;16.790;2023-02-04T12:07:03;102315.48;;;5.68;54.98
28701;BME280;15877;52.344;16.790;2023-02-04T12:09:35;102329.61;;;5.74;55.68
28701;BME280;15877;52.344;16.790;2023-02-04T12:12:25;102342.65;;;5.53;55.36
28701;BME280;15877;52.344;16.790;2023-02-04T12:15:02;102346.52;;;5.59;55.55
28701;BME280;15877;52.344;16.790;2023-02-04T12:17:35;102348.70;;;5.93;55.73
28701;BME280;15877;52.344;16.790;2023-02-04T12:20:10;102336.92;;;5.96;56.34
28701;BME280;15877;52.344;16.790;2023-02-04T12:22:42;102353.80;;;5.91;55.94
28701;BME280;15877;52.344;16.790;2023-02-04T12:25:15;102357.25;;;5.84;55.59
28701;BME280;15877;52.344;16.790;2023-02-04T12:27:48;102359.56;;;5.87;55.70
28701;BME280;15877;52.344;16.790;2023-02-04T12:30:22;102367.65;;;5.88;55.72
28701;BME280;15877;52.344;16.790;2023-02-04T12:32:56;102369.52;;;5.80;55.75
28701;BME280;15877;52.344;16.790;2023-02-04T12:35:28;102370.03;;;5.66;55.45
28701;BME280;15877;52.344;16.790;2023-02-04T12:38:01;102368.36;;;5.67;55.17
28701;BME280;15877;52.344;16.790;2023-02-04T12:40:34;102334.01;;;5.62;56.29
28701;BME280;15877;52.344;16.790;2023-02-04T12:43:07;102377.40;;;6.00;55.91
28701;BME280;15877;52.344;16.790;2023-02-04T12:45:39;102376.77;;;5.96;56.40
28701;BME280;15877;52.344;16.790;2023-02-04T12:48:15;102392.16;;;5.86;54.53
28701;BME280;15877;52.344;16.790;2023-02-04T12:50:48;102387.39;;;5.87;54.00
28701;BME280;15877;52.344;16.790;2023-02-04T12:53:20;102387.88;;;5.80;54.06
28701;BME280;15877;52.344;16.790;2023-02-04T12:55:53;102386.67;;;5.69;54.95
28701;BME280;15877;52.344;16.790;2023-02-04T12:58:27;102395.56;;;5.66;55.85
28701;BME280;15877;52.344;16.790;2023-02-04T13:01:00;102396.13;;;5.63;56.53
28701;BME280;15877;52.344;16.790;2023-02-04T13:03:34;102397.95;;;5.55;56.97
28701;BME280;15877;52.344;16.790;2023-02-04T13:06:07;102406.86;;;5.46;56.74
28701;BME280;15877;52.344;16.790;2023-02-04T13:08:39;102408.97;;;5.43;56.69
28701;BME280;15877;52.344;16.790;2023-02-04T13:11:12;102393.75;;;5.30;56.41
28701;BME280;15877;52.344;16.790;2023-02-04T13:13:44;102408.34;;;5.49;56.28
28701;BME280;15877;52.344;16.790;2023-02-04T13:16:17;102393.26;;;5.32;55.76
28701;BME280;15877;52.344;16.790;2023-02-04T13:18:53;102408.82;;;5.38;55.91
28701;BME280;15877;52.344;16.790;2023-02-04T13:21:25;102398.22;;;5.14;56.71
28701;BME280;15877;52.344;16.790;2023-02-04T13:23:57;102415.74;;;5.27;57.51